Time;durP1;ratioP1;P1;durP2;ratioP2;P2;SDS_P1;SDS_P2;PMS_P1;PMS_P2;Temp;Humidity;BMP_temperature;BMP_pressure;BME280_temperature;BME280_humidity;BME280_pressure;Samples;Min_cycle;Max_cycle;Signal;HPM_P1;HPM_P2
2023/12/03 00:00:08;;;;;;;9.55;4.18;;;;;;;-2.80;60.05;100311.38;10441036;28;20044;-68
2023/12/03 00:05:12;;;;;;;8.82;4.20;;;;;;;-2.72;59.69;100325.88;10408276;28;20056;-68
2023/12/03 00:10:14;;;;;;;9.90;3.60;;;;;;;-2.65;59.86;100316.50;10441271;28;20045;-67
2023/12/03 00:15:16;;;;;;;14.70;5.07;;;;;;;-2.55;59.96;100316.47;10440286;28;20047;-68
2023/12/03 00:20:19;;;;;;;17.90;5.65;;;;;;;-2.69;59.64;100307.94;10440509;28;20219;-68
2023/12/03 00:25:21;;;;;;;11.10;5.05;;;;;;;-2.59;59.87;100306.25;10423002;28;20061;-67
2023/12/03 00:30:23;;;;;;;11.18;4.75;;;;;;;-2.57;59.55;100312.22;10440517;28;20049;-67
2023/12/03 00:35:25;;;;;;;10.10;4.28;;;;;;;-2.66;59.68;100325.88;10454906;28;20045;-68
2023/12/03 00:40:27;;;;;;;11.10;5.22;;;;;;;-2.61;60.11;100315.66;10422319;28;20404;-69
2023/12/03 00:45:29;;;;;;;8.15;4.50;;;;;;;-2.39;59.89;100309.63;10438303;28;20508;-68
2023/12/03 00:50:31;;;;;;;9.98;3.90;;;;;;;-2.36;59.66;100310.47;10416845;28;20416;-67
2023/12/03 00:55:33;;;;;;;11.73;4.18;;;;;;;-2.56;59.55;100314.78;10439373;28;20124;-68
2023/12/03 01:00:35;;;;;;;8.23;3.53;;;;;;;-2.70;60.19;100331.84;10439316;28;20042;-67
2023/12/03 01:05:37;;;;;;;14.45;4.72;;;;;;;-2.55;59.98;100329.28;10439183;28;20040;-68
2023/12/03 01:10:39;;;;;;;8.82;3.85;;;;;;;-2.56;60.14;100330.13;10419977;28;20449;-68
2023/12/03 01:15:43;;;;;;;8.77;4.40;;;;;;;-2.39;60.15;100331.00;10453923;28;20501;-68
2023/12/03 01:20:45;;;;;;;8.30;4.15;;;;;;;-2.27;59.84;100336.09;10436912;28;20081;-68
2023/12/03 01:25:47;;;;;;;8.07;4.05;;;;;;;-2.04;59.72;100347.13;10437757;28;20048;-68
2023/12/03 01:30:49;;;;;;;15.73;4.03;;;;;;;-2.08;59.53;100353.13;10437746;28;20037;-68
2023/12/03 01:35:51;;;;;;;8.45;3.72;;;;;;;-2.00;59.85;100351.38;10437465;28;20045;-69
2023/12/03 01:40:53;;;;;;;7.00;3.38;;;;;;;-1.94;59.37;100355.66;10417864;28;20048;-66
2023/12/03 01:45:55;;;;;;;8.27;3.95;;;;;;;-2.12;59.67;100365.94;10437608;28;20044;-69
2023/12/03 01:50:58;;;;;;;12.50;4.70;;;;;;;-2.27;59.71;100371.97;10435158;28;20041;-68
2023/12/03 01:56:00;;;;;;;10.18;4.95;;;;;;;-2.42;60.13;100361.72;10437046;28;20036;-68
2023/12/03 02:01:02;;;;;;;9.70;4.10;;;;;;;-2.25;60.02;100370.25;10437572;28;20052;-68
2023/12/03 02:06:09;;;;;;;8.25;4.18;;;;;;;-2.09;60.19;100371.06;10436160;28;20041;-68
2023/12/03 02:11:12;;;;;;;11.63;5.07;;;;;;;-2.20;60.09;100359.97;10436077;28;20099;-68
2023/12/03 02:16:14;;;;;;;20.05;4.78;;;;;;;-2.22;60.34;100370.22;10436650;28;20044;-68
2023/12/03 02:21:16;;;;;;;12.50;4.63;;;;;;;-2.34;60.09;100362.56;10434811;28;20198;-68
2023/12/03 02:26:18;;;;;;;9.27;4.53;;;;;;;-2.63;60.57;100366.00;10435993;28;20045;-69
2023/12/03 02:31:20;;;;;;;12.82;5.43;;;;;;;-2.49;60.84;100365.13;10435349;28;20051;-68
2023/12/03 02:36:22;;;;;;;8.10;3.40;;;;;;;-2.32;60.79;100376.22;10416801;28;20037;-69
2023/12/03 02:41:24;;;;;;;8.43;4.53;;;;;;;-2.29;60.35;100393.28;10434953;28;20044;-68
2023/12/03 02:46:26;;;;;;;7.53;3.95;;;;;;;-2.35;60.42;100399.28;10434990;28;20921;-68
2023/12/03 02:51:28;;;;;;;7.85;3.78;;;;;;;-2.39;60.67;100401.84;10432622;28;20044;-69
2023/12/03 02:56:31;;;;;;;6.90;3.90;;;;;;;-2.39;60.26;100407.81;10433651;28;20044;-68
2023/12/03 03:01:33;;;;;;;7.75;3.97;;;;;;;-2.41;60.74;100396.72;10417393;28;20581;-68
2023/12/03 03:06:35;;;;;;;7.13;3.45;;;;;;;-2.24;60.39;100399.25;10415355;28;20436;-67
2023/12/03 03:11:37;;;;;;;10.00;4.05;;;;;;;-2.12;60.26;100394.97;10433949;28;20052;-67
2023/12/03 03:16:39;;;;;;;9.40;4.40;;;;;;;-2.07;60.18;100400.09;10433864;28;20060;-67
2023/12/03 03:21:41;;;;;;;10.02;4.13;;;;;;;-2.18;60.08;100407.78;10415818;28;20498;-68
2023/12/03 03:26:43;;;;;;;9.38;4.53;;;;;;;-2.10;60.35;100412.91;10433173;28;20053;-68
2023/12/03 03:31:45;;;;;;;7.47;4.00;;;;;;;-1.97;60.27;100419.72;10433559;28;20894;-67
2023/12/03 03:36:47;;;;;;;9.70;4.72;;;;;;;-2.16;60.18;100424.03;10433316;28;20472;-67
2023/12/03 03:41:49;;;;;;;8.52;4.38;;;;;;;-2.07;60.51;100428.28;10433164;28;20048;-68
2023/12/03 03:46:51;;;;;;;7.82;3.78;;;;;;;-1.95;60.42;100420.59;10433449;28;20048;-68
2023/12/03 03:51:54;;;;;;;8.85;3.63;;;;;;;-1.89;60.13;100412.88;10415166;28;20136;-67
2023/12/03 03:56:56;;;;;;;8.18;4.00;;;;;;;-1.98;60.00;100422.31;10432858;28;20131;-68
2023/12/03 04:01:58;;;;;;;9.32;3.70;;;;;;;-2.04;60.09;100430.84;10432298;28;20053;-68
2023/12/03 04:07:00;;;;;;;12.30;4.78;;;;;;;-2.07;60.12;100429.16;10431892;28;20048;-68
2023/12/03 04:12:03;;;;;;;9.13;4.32;;;;;;;-2.12;60.22;100430.84;10447525;28;20076;-67
2023/12/03 04:17:05;;;;;;;8.40;4.63;;;;;;;-2.19;60.17;100438.53;10432863;28;20057;-68
2023/12/03 04:22:07;;;;;;;7.97;3.78;;;;;;;-2.57;60.45;100440.25;10439650;28;20055;-68
2023/12/03 04:27:09;;;;;;;8.10;4.03;;;;;;;-2.76;60.82;100446.19;10440162;28;20040;-68
2023/12/03 04:32:11;;;;;;;9.38;4.65;;;;;;;-2.71;61.02;100440.19;10440224;28;20052;-68
2023/12/03 04:37:13;;;;;;;11.45;4.22;;;;;;;-2.75;60.90;100443.59;10418150;28;20057;-68
2023/12/03 04:42:15;;;;;;;7.50;3.80;;;;;;;-2.74;61.14;100452.16;10438696;28;20420;-67
2023/12/03 04:47:17;;;;;;;8.05;4.05;;;;;;;-2.62;60.89;100455.59;10438865;28;21081;-68
2023/12/03 04:52:18;;;;;;;10.02;4.53;;;;;;;-2.55;60.94;100447.06;10438312;28;20052;-67
2023/12/03 04:57:20;;;;;;;8.35;4.20;;;;;;;-2.61;60.65;100456.47;10438961;28;20049;-68
2023/12/03 05:02:22;;;;;;;9.85;4.50;;;;;;;-2.63;61.01;100453.88;10421582;28;20659;-68
2023/12/03 05:07:24;;;;;;;8.80;4.18;;;;;;;-2.57;60.90;100456.44;10439674;28;20041;-68
2023/12/03 05:12:26;;;;;;;8.43;3.85;;;;;;;-2.54;61.01;100459.03;10418102;28;20045;-67
2023/12/03 05:17:28;;;;;;;12.93;5.88;;;;;;;-2.72;60.89;100453.00;10436158;28;20041;-68
2023/12/03 05:22:30;;;;;;;9.93;4.57;;;;;;;-2.74;61.27;100462.38;10437471;28;20057;-67
2023/12/03 05:27:32;;;;;;;9.23;3.83;;;;;;;-2.73;61.36;100459.81;10436992;28;20912;-69
2023/12/03 05:32:34;;;;;;;7.57;3.88;;;;;;;-2.66;61.61;100446.19;10419178;28;20052;-67
2023/12/03 05:37:38;;;;;;;8.88;4.57;;;;;;;-2.57;61.29;100468.41;10437499;28;20139;-69
2023/12/03 05:42:40;;;;;;;8.75;3.85;;;;;;;-2.58;61.25;100467.56;10434299;28;20051;-68
2023/12/03 05:47:42;;;;;;;7.20;4.00;;;;;;;-2.74;61.46;100476.06;10437232;28;20083;-68
2023/12/03 05:52:44;;;;;;;7.65;4.30;;;;;;;-2.91;61.61;100481.13;10436642;28;20555;-68
2023/12/03 05:57:46;;;;;;;7.78;4.35;;;;;;;-2.97;61.47;100483.66;10436572;28;20045;-68
2023/12/03 06:02:48;;;;;;;7.43;3.17;;;;;;;-3.07;61.65;100471.69;10436199;28;20443;-68
2023/12/03 06:07:50;;;;;;;10.75;4.28;;;;;;;-3.12;61.73;100483.59;10435887;28;20132;-67
2023/12/03 06:12:52;;;;;;;9.68;4.57;;;;;;;-3.21;61.68;100491.25;10419120;28;20075;-67
2023/12/03 06:17:54;;;;;;;7.55;4.40;;;;;;;-3.29;61.73;100492.03;10436226;28;20053;-67
2023/12/03 06:22:56;;;;;;;8.65;4.15;;;;;;;-3.37;61.92;100491.16;10435617;28;20052;-68
2023/12/03 06:27:58;;;;;;;8.52;4.32;;;;;;;-3.41;62.07;100494.53;10434917;28;20041;-68
2023/12/03 06:33:00;;;;;;;8.07;3.55;;;;;;;-3.43;62.52;100504.78;10434437;28;20045;-68
2023/12/03 06:38:02;;;;;;;10.00;4.43;;;;;;;-3.32;62.78;100510.78;10434244;28;20045;-68
2023/12/03 06:43:04;;;;;;;7.22;3.30;;;;;;;-3.16;62.31;100517.69;10432330;28;20075;-68
2023/12/03 06:48:06;;;;;;;8.18;4.18;;;;;;;-2.87;62.24;100525.47;10432617;28;20045;-67
2023/12/03 06:53:09;;;;;;;8.77;3.92;;;;;;;-2.72;62.05;100530.66;10434221;28;20359;-68
2023/12/03 06:58:11;;;;;;;11.20;4.30;;;;;;;-2.48;61.63;100546.09;10415222;28;20130;-67
2023/12/03 07:03:13;;;;;;;11.05;4.60;;;;;;;-2.24;61.50;100550.41;10433976;28;20059;-67
2023/12/03 07:08:15;;;;;;;9.35;4.72;;;;;;;-2.11;61.31;100553.00;10433926;28;20045;-67
2023/12/03 07:13:17;;;;;;;8.73;3.55;;;;;;;-1.92;61.11;100560.72;10433594;28;20055;-68
2023/12/03 07:18:19;;;;;;;9.85;4.35;;;;;;;-1.86;60.88;100570.97;10432997;28;20055;-68
2023/12/03 07:23:20;;;;;;;7.95;3.67;;;;;;;-1.77;60.75;100583.75;10433851;28;20045;-67
2023/12/03 07:28:22;;;;;;;11.88;4.57;;;;;;;-1.70;60.75;100585.50;10433167;28;20045;-67
2023/12/03 07:33:25;;;;;;;14.75;4.95;;;;;;;-1.64;60.61;100585.50;10433909;28;20037;-67
2023/12/03 07:38:28;;;;;;;13.25;5.13;;;;;;;-1.51;60.58;100579.50;10432913;28;20044;-67
2023/12/03 07:43:30;;;;;;;11.20;4.20;;;;;;;-1.47;60.36;100579.47;10430838;28;20040;-67
2023/12/03 07:48:33;;;;;;;10.85;5.10;;;;;;;-1.43;60.36;100586.31;10448083;28;20055;-68
2023/12/03 07:53:35;;;;;;;14.27;4.78;;;;;;;-1.39;60.29;100597.47;10435765;28;20049;-67
2023/12/03 07:58:37;;;;;;;11.75;4.50;;;;;;;-1.48;60.62;100615.41;10440988;28;20045;-67
2023/12/03 08:03:39;;;;;;;8.45;4.20;;;;;;;-1.64;60.70;100616.25;10423345;28;20140;-68
2023/12/03 08:08:41;;;;;;;9.70;3.97;;;;;;;-1.75;61.07;100613.69;10441003;28;20501;-68
2023/12/03 08:13:43;;;;;;;9.98;4.25;;;;;;;-1.57;60.75;100617.94;10421739;28;20049;-68
2023/12/03 08:18:45;;;;;;;11.00;3.78;;;;;;;-1.55;60.85;100618.84;10430594;28;20489;-68
2023/12/03 08:23:52;;;;;;;8.82;4.18;;;;;;;-1.46;60.75;100609.44;10438992;28;21284;-68
2023/12/03 08:28:55;;;;;;;8.95;4.60;;;;;;;-1.33;60.50;100618.81;10435427;28;20045;-68
2023/12/03 08:33:57;;;;;;;11.85;4.90;;;;;;;-1.35;60.51;100615.38;10438195;28;20049;-68
2023/12/03 08:39:01;;;;;;;9.93;4.40;;;;;;;-1.07;60.14;100612.78;10417702;28;20045;-68
2023/12/03 08:44:04;;;;;;;9.25;4.60;;;;;;;-0.64;59.53;100622.97;10418477;28;20045;-68
2023/12/03 08:49:06;;;;;;;12.10;4.25;;;;;;;-0.40;59.12;100622.84;10411843;28;20053;-68
2023/12/03 08:54:10;;;;;;;15.27;6.55;;;;;;;-0.15;58.69;100623.59;10432827;28;20048;-67
2023/12/03 08:59:12;;;;;;;8.25;3.97;;;;;;;0.12;58.13;100622.53;10434762;28;20541;-68
2023/12/03 09:04:14;;;;;;;10.82;3.97;;;;;;;0.21;57.58;100622.50;10434831;28;20084;-68
2023/12/03 09:09:16;;;;;;;16.90;5.70;;;;;;;0.28;57.29;100624.19;10434715;28;20045;-68
2023/12/03 09:14:18;;;;;;;10.40;4.68;;;;;;;0.22;57.15;100621.66;10435524;28;20613;-68
2023/12/03 09:19:20;;;;;;;8.90;4.30;;;;;;;-0.04;57.51;100624.38;10432315;28;20057;-68
2023/12/03 09:24:23;;;;;;;10.45;4.50;;;;;;;-0.19;57.72;100627.03;10435276;28;20339;-68
2023/12/03 09:29:25;;;;;;;14.15;5.65;;;;;;;-0.23;58.01;100612.50;10428694;28;20045;-68
2023/12/03 09:34:27;;;;;;;7.85;3.53;;;;;;;-0.12;57.66;100620.97;10415805;28;20102;-68
2023/12/03 09:39:29;;;;;;;6.60;3.22;;;;;;;-0.12;57.66;100622.69;10414970;28;20044;-68
2023/12/03 09:44:43;;;;;;;7.13;3.83;;;;;;;-0.18;57.23;100620.16;10434465;28;20048;-68
2023/12/03 09:49:48;;;;;;;8.25;4.07;;;;;;;-0.12;57.48;100618.41;10400286;28;20051;-68
2023/12/03 09:54:54;;;;;;;8.50;3.65;;;;;;;-0.11;57.45;100622.72;10433747;28;20037;-68
2023/12/03 09:59:58;;;;;;;7.53;3.75;;;;;;;-0.07;57.18;100608.13;10430800;28;20045;-68
2023/12/03 10:05:01;;;;;;;7.25;3.35;;;;;;;-0.05;57.47;100609.81;10434140;28;20423;-68
2023/12/03 10:10:08;;;;;;;10.02;4.25;;;;;;;0.06;57.11;100609.72;10432261;28;20492;-68
2023/12/03 10:15:12;;;;;;;8.07;4.43;;;;;;;0.17;57.03;100619.09;10432106;28;20390;-68
2023/12/03 10:20:34;;;;;;;8.77;3.47;;;;;;;0.18;56.49;100617.38;10395714;28;20183;-68
2023/12/03 10:25:37;;;;;;;9.15;3.72;;;;;;;0.16;56.60;100616.53;10433645;28;20068;-70
2023/12/03 10:30:39;;;;;;;10.95;3.85;;;;;;;0.16;56.83;100624.25;10431674;28;20122;-68
2023/12/03 10:35:41;;;;;;;10.05;4.65;;;;;;;0.18;56.72;100617.38;10432955;28;20051;-68
2023/12/03 10:40:47;;;;;;;11.02;4.18;;;;;;;0.19;56.31;100619.09;10429611;28;20047;-68
2023/12/03 10:45:53;;;;;;;8.25;3.70;;;;;;;0.37;56.39;100619.81;10414662;28;21056;-68
2023/12/03 10:51:04;;;;;;;10.85;4.05;;;;;;;0.41;56.01;100612.91;10414190;28;20049;-68
2023/12/03 10:56:08;;;;;;;10.98;4.22;;;;;;;0.60;56.24;100608.47;10431082;28;20504;-68
2023/12/03 11:01:19;;;;;;;8.57;3.33;;;;;;;0.59;55.23;100605.03;10429148;28;20052;-68
2023/12/03 11:06:25;;;;;;;10.80;5.20;;;;;;;0.74;55.60;100596.31;10426776;28;20065;-68
2023/12/03 11:11:30;;;;;;;11.05;4.72;;;;;;;1.01;55.59;100594.34;10429930;28;20106;-68
2023/12/03 11:16:47;;;;;;;14.57;4.68;;;;;;;1.18;54.64;100591.56;10430847;28;20075;-68
2023/12/03 11:22:00;;;;;;;8.85;4.18;;;;;;;1.17;53.20;100577.00;10426948;28;20045;-68
2023/12/03 11:27:03;;;;;;;7.38;4.43;;;;;;;1.33;54.75;100568.22;10439968;28;20092;-68
2023/12/03 11:32:05;;;;;;;13.10;4.65;;;;;;;1.20;53.13;100559.75;10430073;28;20110;-67
2023/12/03 11:37:09;;;;;;;9.13;4.18;;;;;;;1.35;54.39;100562.16;10426521;28;20535;-68
2023/12/03 11:42:12;;;;;;;10.02;4.28;;;;;;;1.42;53.92;100556.94;10429266;28;20051;-67
2023/12/03 11:47:15;;;;;;;10.82;4.35;;;;;;;1.38;53.85;100556.97;10414312;28;20055;-68
2023/12/03 11:52:18;;;;;;;10.90;4.65;;;;;;;1.39;53.83;100560.41;10412002;28;20056;-68
2023/12/03 11:57:20;;;;;;;8.38;4.13;;;;;;;1.41;53.37;100558.66;10429374;28;20048;-68
2023/12/03 12:02:22;;;;;;;10.13;4.80;;;;;;;1.44;53.82;100552.63;10423066;28;20076;-68
2023/12/03 12:07:24;;;;;;;9.80;4.13;;;;;;;1.59;53.46;100554.97;10428131;28;20045;-68
2023/12/03 12:12:27;;;;;;;11.73;5.53;;;;;;;1.57;53.40;100549.84;10442639;28;20669;-68
2023/12/03 12:17:29;;;;;;;10.38;5.30;;;;;;;1.58;53.40;100533.53;10428993;28;20057;-67
2023/12/03 12:22:31;;;;;;;9.38;4.03;;;;;;;1.55;52.93;100541.28;10421235;28;20725;-67
2023/12/03 12:27:33;;;;;;;9.75;4.03;;;;;;;1.66;53.20;100528.25;10428628;28;20051;-67
2023/12/03 12:32:35;;;;;;;7.63;3.67;;;;;;;1.69;53.18;100520.47;10429042;28;20045;-67
2023/12/03 12:37:38;;;;;;;10.20;4.10;;;;;;;1.78;52.84;100507.44;10428615;28;20049;-67
2023/12/03 12:42:42;;;;;;;8.23;4.30;;;;;;;1.77;52.77;100513.47;10432912;28;20160;-67
2023/12/03 12:47:45;;;;;;;9.95;3.83;;;;;;;1.82;52.44;100509.09;10436235;28;20033;-68
2023/12/03 12:52:54;;;;;;;9.52;4.00;;;;;;;1.82;51.40;100504.81;10449821;28;20056;-68
2023/12/03 12:57:57;;;;;;;7.75;3.97;;;;;;;1.77;52.10;100498.84;10434823;28;20041;-68
2023/12/03 13:02:59;;;;;;;11.23;4.15;;;;;;;1.78;52.08;100498.00;10416914;28;20499;-68
2023/12/03 13:08:03;;;;;;;8.90;3.33;;;;;;;1.76;51.01;100491.13;10434781;28;20547;-67
2023/12/03 13:13:05;;;;;;;10.63;3.67;;;;;;;1.64;51.52;100489.59;10417232;28;20425;-67
2023/12/03 13:18:07;;;;;;;8.43;3.75;;;;;;;1.64;52.34;100476.72;10416133;28;20056;-68
2023/12/03 13:23:23;;;;;;;8.32;3.95;;;;;;;1.71;52.27;100461.97;10426536;28;20569;-68
2023/12/03 13:28:26;;;;;;;7.28;3.75;;;;;;;1.70;52.44;100461.16;10431309;28;20199;-67
2023/12/03 13:33:29;;;;;;;10.02;4.00;;;;;;;1.53;52.57;100462.25;10431218;28;20076;-67
2023/12/03 13:38:33;;;;;;;9.57;4.20;;;;;;;1.41;52.98;100465.03;10410087;28;20037;-68
2023/12/03 13:43:35;;;;;;;9.20;4.13;;;;;;;1.35;52.80;100464.25;10432820;28;20056;-67
2023/12/03 13:48:37;;;;;;;8.98;4.07;;;;;;;1.28;53.02;100469.47;10447432;28;20075;-68
2023/12/03 13:53:39;;;;;;;11.25;4.85;;;;;;;1.24;53.17;100463.53;10446322;28;20040;-67
2023/12/03 13:58:42;;;;;;;11.38;4.80;;;;;;;1.22;53.08;100464.41;10427515;28;20122;-67
2023/12/03 14:03:44;;;;;;;11.02;4.45;;;;;;;1.09;53.26;100460.31;10415443;28;20045;-67
2023/12/03 14:08:46;;;;;;;8.40;3.83;;;;;;;0.86;53.55;100457.16;10432964;28;20037;-67
2023/12/03 14:13:49;;;;;;;9.43;4.22;;;;;;;0.73;53.88;100463.34;10432608;28;20049;-67
2023/12/03 14:18:51;;;;;;;9.80;4.50;;;;;;;0.61;53.92;100454.03;10414544;28;20134;-67
2023/12/03 14:23:53;;;;;;;9.90;4.30;;;;;;;0.66;53.89;100460.00;10412043;28;20055;-67
2023/12/03 14:28:55;;;;;;;11.80;4.60;;;;;;;0.62;53.82;100466.03;10432087;28;20040;-67
2023/12/03 14:33:57;;;;;;;8.45;3.70;;;;;;;0.64;53.80;100469.44;10428203;28;20049;-68
2023/12/03 14:38:59;;;;;;;7.63;4.05;;;;;;;0.61;53.65;100469.47;10429465;28;20055;-68
2023/12/03 14:44:02;;;;;;;9.52;4.35;;;;;;;0.51;53.81;100462.72;10431188;28;20169;-67
2023/12/03 14:49:04;;;;;;;9.70;4.07;;;;;;;0.42;53.93;100466.22;10429797;28;20037;-68
2023/12/03 14:54:07;;;;;;;10.55;4.40;;;;;;;0.17;54.02;100469.06;10430540;28;20033;-68
2023/12/03 14:59:09;;;;;;;8.88;4.43;;;;;;;-0.03;54.20;100483.81;10430073;28;20041;-67
2023/12/03 15:04:11;;;;;;;9.57;3.75;;;;;;;-0.13;54.17;100474.47;10410752;28;20136;-67
2023/12/03 15:09:13;;;;;;;8.77;3.95;;;;;;;-0.27;54.67;100477.16;10429570;28;20043;-67
2023/12/03 15:14:15;;;;;;;12.05;5.15;;;;;;;-0.37;54.92;100476.34;10430620;28;20053;-67
2023/12/03 15:19:17;;;;;;;8.23;4.53;;;;;;;-0.43;55.20;100489.25;10428901;28;20397;-67
2023/12/03 15:24:21;;;;;;;8.27;4.07;;;;;;;-0.59;55.28;100472.22;10431004;28;20060;-67
2023/12/03 15:29:24;;;;;;;9.50;4.10;;;;;;;-0.65;55.28;100479.09;10427509;28;20207;-67
2023/12/03 15:34:26;;;;;;;9.93;4.60;;;;;;;-0.76;55.81;100478.31;10430233;28;20401;-67
2023/12/03 15:39:28;;;;;;;10.18;4.35;;;;;;;-0.75;55.86;100480.88;10429272;28;20063;-66
2023/12/03 15:44:30;;;;;;;8.90;4.03;;;;;;;-0.72;55.70;100483.41;10426465;28;20074;-67
2023/12/03 15:49:32;;;;;;;10.07;4.75;;;;;;;-0.77;56.23;100487.75;10426689;28;20167;-67
2023/12/03 15:54:34;;;;;;;10.25;4.15;;;;;;;-0.81;56.07;100491.19;10430212;28;20183;-67
2023/12/03 15:59:36;;;;;;;9.63;4.30;;;;;;;-0.75;56.26;100500.56;10428486;28;20041;-67
2023/12/03 16:04:41;;;;;;;9.85;4.40;;;;;;;-0.60;56.14;100487.66;10412360;28;20033;-66
2023/12/03 16:09:43;;;;;;;8.93;5.10;;;;;;;-0.55;56.06;100480.75;10408435;28;20051;-67
2023/12/03 16:14:46;;;;;;;13.50;5.18;;;;;;;-0.48;56.23;100485.88;10433549;28;20488;-67
2023/12/03 16:19:49;;;;;;;8.77;4.30;;;;;;;-0.53;56.20;100471.31;10433709;28;20183;-68
2023/12/03 16:24:51;;;;;;;9.52;4.10;;;;;;;-0.60;56.25;100469.66;10435542;28;20056;-68
2023/12/03 16:29:53;;;;;;;9.23;4.07;;;;;;;-0.59;56.34;100468.78;10432483;28;20048;-68
2023/12/03 16:34:55;;;;;;;11.65;5.18;;;;;;;-0.53;56.31;100469.63;10418899;28;20106;-68
2023/12/03 16:39:58;;;;;;;7.25;3.58;;;;;;;-0.48;56.34;100470.44;10432650;28;20079;-67
2023/12/03 16:45:00;;;;;;;12.90;5.03;;;;;;;-0.46;56.22;100463.59;10433739;28;20044;-68
2023/12/03 16:50:04;;;;;;;10.80;4.03;;;;;;;-0.47;56.28;100461.88;10432062;28;20033;-66
2023/12/03 16:55:07;;;;;;;8.93;4.10;;;;;;;-0.44;56.52;100474.72;10433445;28;20683;-66
2023/12/03 17:03:04;;;;;;;9.50;4.33;;;;;;;-0.46;56.67;100467.88;10547059;27;20120;-65
2023/12/03 17:08:07;;;;;;;9.70;4.47;;;;;;;-0.37;56.51;100453.22;10548551;28;20470;-66
2023/12/03 17:13:10;;;;;;;15.60;5.18;;;;;;;-0.38;56.14;100473.81;10546543;28;20036;-66
2023/12/03 17:18:17;;;;;;;13.55;5.32;;;;;;;-0.26;56.42;100470.28;10546496;28;20125;-66
2023/12/03 17:23:19;;;;;;;11.90;5.45;;;;;;;-0.12;56.11;100459.03;10544583;28;20040;-66
2023/12/03 17:28:21;;;;;;;10.27;4.25;;;;;;;-0.16;56.13;100456.50;10541423;28;20051;-66
2023/12/03 17:33:27;;;;;;;12.15;5.38;;;;;;;-0.18;56.07;100453.09;10546070;28;20951;-66
2023/12/03 17:38:30;;;;;;;10.95;5.40;;;;;;;-0.09;56.32;100448.75;10547123;28;20063;-66
2023/12/03 17:43:32;;;;;;;10.35;4.43;;;;;;;-0.08;56.17;100460.72;10541652;28;20052;-66
2023/12/03 17:48:34;;;;;;;10.38;4.18;;;;;;;-0.07;56.01;100452.16;10544354;28;20185;-67
2023/12/03 17:53:36;;;;;;;13.00;5.40;;;;;;;-0.13;56.00;100457.34;10545143;28;20470;-67
2023/12/03 17:58:38;;;;;;;11.57;4.47;;;;;;;-0.25;55.88;100452.31;10544422;28;20048;-67
2023/12/03 18:03:41;;;;;;;8.73;4.60;;;;;;;-0.30;56.03;100448.91;10545187;28;20164;-67
2023/12/03 18:08:45;;;;;;;16.05;5.53;;;;;;;-0.31;56.21;100436.91;10526303;28;20046;-67
2023/12/03 18:13:47;;;;;;;11.82;4.97;;;;;;;-0.23;56.61;100439.44;10520829;28;20047;-68
2023/12/03 18:18:49;;;;;;;10.82;4.85;;;;;;;-0.17;56.31;100434.25;10517038;28;20427;-68
2023/12/03 18:23:51;;;;;;;14.68;5.18;;;;;;;-0.14;56.16;100423.91;10517440;28;20483;-68
2023/12/03 18:28:53;;;;;;;13.48;6.28;;;;;;;-0.28;56.58;100425.75;10510231;28;20048;-68
2023/12/03 18:33:55;;;;;;;13.48;5.18;;;;;;;-0.35;56.85;100418.09;10515300;28;20039;-68
2023/12/03 18:38:57;;;;;;;17.27;5.20;;;;;;;-0.23;56.86;100411.16;10515644;28;20056;-68
2023/12/03 18:43:59;;;;;;;9.85;5.03;;;;;;;-0.24;56.67;100412.88;10515246;28;20087;-69
2023/12/03 18:49:02;;;;;;;11.52;4.88;;;;;;;-0.16;56.42;100407.66;10516100;28;20464;-68
2023/12/03 18:54:05;;;;;;;16.00;4.93;;;;;;;-0.16;56.38;100395.66;10515039;28;20028;-69
2023/12/03 18:59:08;;;;;;;12.63;4.68;;;;;;;-0.26;56.53;100391.47;10497411;28;21182;-69
2023/12/03 19:04:13;;;;;;;12.90;5.18;;;;;;;-0.26;56.58;100381.19;10516051;28;20443;-69
2023/12/03 19:09:15;;;;;;;14.48;5.32;;;;;;;-0.23;56.36;100383.75;10514646;28;20036;-68
2023/12/03 19:14:19;;;;;;;11.32;5.25;;;;;;;-0.26;56.36;100382.91;10510727;28;20054;-68
2023/12/03 19:19:21;;;;;;;11.98;4.60;;;;;;;-0.33;56.13;100377.81;10474559;28;20052;-69
2023/12/03 19:24:24;;;;;;;16.48;5.45;;;;;;;-0.34;56.32;100368.41;10512764;28;20044;-68
2023/12/03 19:29:26;;;;;;;11.40;4.47;;;;;;;-0.28;56.31;100353.78;10511607;28;20033;-68
2023/12/03 19:34:28;;;;;;;10.48;4.63;;;;;;;-0.27;56.37;100353.81;10489818;28;20495;-68
2023/12/03 19:39:32;;;;;;;8.48;3.65;;;;;;;-0.23;56.17;100359.75;10513958;28;20064;-68
2023/12/03 19:44:35;;;;;;;8.55;4.82;;;;;;;-0.13;56.04;100348.53;10503574;28;20044;-69
2023/12/03 19:49:41;;;;;;;9.35;3.70;;;;;;;-0.20;56.04;100332.31;10510623;28;20044;-65
2023/12/03 19:54:44;;;;;;;10.10;3.70;;;;;;;-0.21;56.54;100314.34;10499065;28;20063;-68
2023/12/03 19:59:49;;;;;;;8.77;3.95;;;;;;;-0.07;56.29;100315.03;10515550;28;20059;-68
2023/12/03 20:04:52;;;;;;;10.93;4.18;;;;;;;-0.13;56.48;100297.09;10479234;28;20068;-66
2023/12/03 20:09:55;;;;;;;8.77;4.40;;;;;;;-0.18;56.57;100293.72;10490977;28;20127;-67
2023/12/03 20:14:57;;;;;;;9.50;4.63;;;;;;;-0.15;56.54;100292.00;10494742;28;20544;-67
2023/12/03 20:19:59;;;;;;;10.25;4.70;;;;;;;-0.18;56.13;100293.72;10514708;28;20058;-66
2023/12/03 20:25:03;;;;;;;9.23;4.40;;;;;;;-0.04;56.20;100282.44;10514152;28;20128;-66
2023/12/03 20:30:06;;;;;;;10.60;4.35;;;;;;;-0.12;56.04;100278.22;10515493;28;20147;-66
2023/12/03 20:35:08;;;;;;;12.27;4.45;;;;;;;-0.15;56.32;100286.84;10514606;28;20036;-66
2023/12/03 20:40:11;;;;;;;9.50;4.70;;;;;;;-0.05;56.18;100297.88;10515549;28;20164;-65
2023/12/03 20:45:13;;;;;;;10.30;4.47;;;;;;;-0.10;56.10;100286.78;10514705;28;20076;-66
2023/12/03 20:50:15;;;;;;;10.05;4.38;;;;;;;-0.08;56.28;100288.47;10512647;28;20044;-67
2023/12/03 20:55:17;;;;;;;9.48;4.97;;;;;;;0.03;56.17;100272.94;10495591;28;20544;-66
2023/12/03 21:00:19;;;;;;;9.35;3.70;;;;;;;0.06;56.42;100262.59;10494447;28;20827;-66
2023/12/03 21:05:21;;;;;;;10.30;4.13;;;;;;;0.12;56.17;100262.50;10514075;28;20544;-69
2023/12/03 21:10:23;;;;;;;10.85;4.47;;;;;;;0.27;56.27;100259.75;10513223;28;20043;-68
2023/12/03 21:15:25;;;;;;;9.50;4.15;;;;;;;0.40;55.81;100251.03;10513799;28;20051;-68
2023/12/03 21:20:28;;;;;;;10.93;4.20;;;;;;;0.34;55.77;100248.53;10514270;28;20040;-68
2023/12/03 21:25:32;;;;;;;6.72;4.10;;;;;;;0.21;55.02;100249.56;10513477;28;20495;-68
2023/12/03 21:30:34;;;;;;;6.35;3.30;;;;;;;0.14;55.38;100240.19;10512854;28;20044;-67
2023/12/03 21:35:37;;;;;;;8.82;4.57;;;;;;;0.13;55.81;100235.94;10494666;28;20044;-68
2023/12/03 21:40:42;;;;;;;8.07;4.70;;;;;;;0.07;55.77;100233.44;10513601;28;20139;-67
2023/12/03 21:45:44;;;;;;;7.50;3.58;;;;;;;0.20;55.65;100235.84;10515141;28;20062;-67
2023/12/03 21:50:46;;;;;;;10.52;5.35;;;;;;;0.22;55.25;100225.56;10502753;28;20067;-68
2023/12/03 21:55:48;;;;;;;6.85;3.63;;;;;;;0.26;55.25;100225.47;10501314;28;20555;-67
2023/12/03 22:00:50;;;;;;;8.48;4.05;;;;;;;0.19;55.42;100225.56;10520808;28;20056;-67
2023/12/03 22:05:52;;;;;;;8.50;4.22;;;;;;;0.19;55.55;100218.72;10520903;28;20048;-67
2023/12/03 22:10:54;;;;;;;8.27;4.07;;;;;;;0.26;55.61;100224.63;10520710;28;20131;-67
2023/12/03 22:15:56;;;;;;;11.10;4.93;;;;;;;0.22;55.48;100215.25;10520811;28;20036;-67
2023/12/03 22:20:58;;;;;;;10.38;4.28;;;;;;;0.21;55.53;100205.84;10504160;28;20056;-67
2023/12/03 22:26:00;;;;;;;7.35;3.78;;;;;;;0.17;55.72;100204.16;10521246;28;20628;-67
2023/12/03 22:31:02;;;;;;;11.05;4.50;;;;;;;0.13;55.70;100197.38;10522477;28;20039;-66
2023/12/03 22:36:04;;;;;;;10.63;4.60;;;;;;;0.10;55.65;100182.81;10537307;28;20223;-67
2023/12/03 22:41:10;;;;;;;8.10;3.65;;;;;;;0.01;55.75;100182.97;10521567;28;20139;-67
2023/12/03 22:46:12;;;;;;;11.68;4.80;;;;;;;-0.05;55.83;100177.91;10521544;28;20131;-67
2023/12/03 22:51:14;;;;;;;11.02;4.55;;;;;;;-0.04;55.86;100164.16;10494816;28;20125;-66
2023/12/03 22:56:16;;;;;;;11.00;4.60;;;;;;;-0.21;56.17;100165.25;10519832;28;20582;-67
2023/12/03 23:01:18;;;;;;;11.55;4.65;;;;;;;-0.22;56.30;100163.53;10518706;28;20055;-67
2023/12/03 23:06:20;;;;;;;8.27;4.20;;;;;;;-0.27;56.49;100143.06;10500370;28;20051;-67
2023/12/03 23:11:22;;;;;;;10.52;4.53;;;;;;;-0.32;56.29;100143.13;10501298;28;20141;-66